Cleveland, OH (44101)

5:53 PM EDT on August 29, 2015 (GMT -0400)
APRSWXNET | | Change Station
CLOSE
Current Station
Personal Weather Station
Location: Cleveland, OH
Elevation: 690 ft
Nearby Weather Stations

Elev 690 ft 41.47 °N, 81.65 °W | Updated 35 minutes ago

Scattered Clouds
Scattered Clouds
82 °F
Feels Like 83 °F
N
0
Wind Variable Wind from East
Gusts 0.0 mph

Today
High -- | Low -- °F
--% Chance of Precip.
Yesterday
High -- | Low -- °F
Precip. -- in
6:49 AM 8:05 PM
Full, 100% visible
Pressure 30.04 in
Visibility 10.0 miles
Clouds Few 2500 ft
Scattered Clouds 20000 ft
Heat Index 83 °F
Dew Point 63 °F
Humidity 52%
Rainfall in
Snow Depth Not available.
UV 3 out of 12
Pollen 9.40 out of 12
Air Quality Not available.
Flu Activity Not available.
METAR KBKL 292053Z 04006KT 10SM FEW025 SCT200 26/18 A3005 RMK AO2 SLP173 T02610178 58019
Pressure 30.04 in
Visibility 10.0 miles
Clouds Few 2500 ft
Scattered Clouds 20000 ft
Heat Index 83 °F
Dew Point 63 °F
Humidity 52%
Rainfall in
Snow Depth Not available.
UV 3 out of 12
Pollen 9.40 out of 12
Air Quality Not available.
Flu Activity Not available.
METAR KBKL 292053Z 04006KT 10SM FEW025 SCT200 26/18 A3005 RMK AO2 SLP173 T02610178 58019

10-Day Weather Forecast

×

Almanac

Astronomy

Aug. 29, 2015 Rise Set
Actual Time
Civil Twilight
Nautical Twilight
Astronomical Twilight
Moon
Length of Visible Light
Length of Day
Tomorrow will be .
, % of the Moon is Illuminated

Today's Extremes

State Highs State Lows

Community

WunderPhotos

Upload Photos

1,850,795 photos uploaded!

WunderBlogs® & News

Nearby

Air Quality

  Air Quality AQ Index Pollutant
Not available.

Snow Depth

Station Depth Elevation

Earthquake Activity

City Distance Mag. Time & Date
Minimum magnitude displayed is 2.5.

Coastal Water Temperatures

Place Temperature

Stations

Nearby Weather Stations

Station Location Temp. Windchill Dew Point Humidity Wind Precip. Elev Updated Type